Time;durP1;ratioP1;P1;durP2;ratioP2;P2;SDS_P1;SDS_P2;PMS_P1;PMS_P2;Temp;Humidity;BMP_temperature;BMP_pressure;BME280_temperature;BME280_humidity;BME280_pressure;Samples;Min_cycle;Max_cycle;Signal;HPM_P1;HPM_P2
2022/10/28 00:00:24;;;;;;;0.00;0.00;;;;;;;;;;5027669;28;20056;-77
2022/10/28 00:02:51;;;;;;;0.00;0.00;;;;;;;;;;5024965;28;20031;-77
2022/10/28 00:05:17;;;;;;;0.00;0.00;;;;;;;;;;5033698;28;20025;-76
2022/10/28 00:07:43;;;;;;;0.00;0.00;;;;;;;;;;5026986;28;20033;-76
2022/10/28 00:10:10;;;;;;;0.00;0.00;;;;;;;;;;5003183;28;20399;-76
2022/10/28 00:12:37;;;;;;;0.00;0.00;;;;;;;;;;5002182;28;20376;-76
2022/10/28 00:15:04;;;;;;;0.00;0.00;;;;;;;;;;4997309;28;20037;-77
2022/10/28 00:17:30;;;;;;;0.00;0.00;;;;;;;;;;5021211;28;20017;-77
2022/10/28 00:19:57;;;;;;;0.00;0.00;;;;;;;;;;5034065;28;20037;-76
2022/10/28 00:22:23;;;;;;;0.00;0.00;;;;;;;;;;5034467;28;20057;-76
2022/10/28 00:24:49;;;;;;;0.00;0.00;;;;;;;;;;5034796;28;20022;-76
2022/10/28 00:27:16;;;;;;;0.00;0.00;;;;;;;;;;5034745;28;20050;-76
2022/10/28 00:29:42;;;;;;;0.00;0.00;;;;;;;;;;5034651;28;20029;-76
2022/10/28 00:32:08;;;;;;;0.00;0.00;;;;;;;;;;5016775;28;20056;-76
2022/10/28 00:34:35;;;;;;;0.00;0.00;;;;;;;;;;5016610;28;20029;-76
2022/10/28 00:37:01;;;;;;;0.00;0.00;;;;;;;;;;5016782;28;20056;-75
2022/10/28 00:39:27;;;;;;;0.00;0.00;;;;;;;;;;5034587;28;20586;-76
2022/10/28 00:41:58;;;;;;;0.00;0.00;;;;;;;;;;5034860;28;20044;-76
2022/10/28 00:44:39;;;;;;;0.00;0.00;;;;;;;;;;5002922;28;20160;-76
2022/10/28 00:47:12;;;;;;;0.00;0.00;;;;;;;;;;5006388;28;20048;-76
2022/10/28 00:49:39;;;;;;;0.00;0.00;;;;;;;;;;5029364;28;20033;-76
2022/10/28 00:52:10;;;;;;;0.00;0.00;;;;;;;;;;5000131;28;20029;-76
2022/10/28 00:54:37;;;;;;;0.00;0.00;;;;;;;;;;5000637;28;20197;-75
2022/10/28 00:57:05;;;;;;;0.00;0.00;;;;;;;;;;5002961;28;20026;-75
2022/10/28 00:59:34;;;;;;;0.10;0.10;;;;;;;;;;5015750;28;20128;-75
2022/10/28 01:02:01;;;;;;;0.00;0.00;;;;;;;;;;5014037;28;20028;-76
2022/10/28 01:04:33;;;;;;;0.00;0.00;;;;;;;;;;5013026;28;20037;-76
2022/10/28 01:07:01;;;;;;;0.00;0.00;;;;;;;;;;4998826;28;20048;-76
2022/10/28 01:09:27;;;;;;;0.00;0.00;;;;;;;;;;5027896;28;20395;-76
2022/10/28 01:11:59;;;;;;;3.63;0.88;;;;;;;;;;5030854;28;20030;-76
2022/10/28 01:14:38;;;;;;;0.00;0.00;;;;;;;;;;5030230;28;20021;-77
2022/10/28 01:17:12;;;;;;;0.22;0.22;;;;;;;;;;5033767;28;20091;-76
2022/10/28 01:19:54;;;;;;;0.00;0.00;;;;;;;;;;5020391;28;20033;-76
2022/10/28 01:22:25;;;;;;;0.00;0.00;;;;;;;;;;5006988;28;20081;-76
2022/10/28 01:24:51;;;;;;;0.00;0.00;;;;;;;;;;5033776;28;20018;-78
2022/10/28 01:27:47;;;;;;;0.00;0.00;;;;;;;;;;5032243;28;20026;-77
2022/10/28 01:30:19;;;;;;;0.00;0.00;;;;;;;;;;5026204;28;20029;-76
2022/10/28 01:33:04;;;;;;;0.00;0.00;;;;;;;;;;5050882;28;20052;-77
2022/10/28 01:35:30;;;;;;;0.00;0.00;;;;;;;;;;5053379;28;20119;-77
2022/10/28 01:38:13;;;;;;;0.00;0.00;;;;;;;;;;5050749;28;20025;-78
2022/10/28 01:40:44;;;;;;;5.07;4.78;;;;;;;;;;5048457;28;20025;-78
2022/10/28 01:43:29;;;;;;;0.65;0.65;;;;;;;;;;5052936;28;20035;-77
2022/10/28 01:46:01;;;;;;;0.00;0.00;;;;;;;;;;5039146;28;20032;-77
2022/10/28 01:48:36;;;;;;;0.00;0.00;;;;;;;;;;5045611;28;20112;-77
2022/10/28 01:51:16;;;;;;;0.00;0.00;;;;;;;;;;5048857;28;20021;-76
2022/10/28 01:53:44;;;;;;;0.00;0.00;;;;;;;;;;5044477;28;20032;-75
2022/10/28 01:56:14;;;;;;;0.90;0.90;;;;;;;;;;5043210;28;20378;-78
2022/10/28 01:58:41;;;;;;;2.17;2.13;;;;;;;;;;5040862;28;20359;-77
2022/10/28 02:01:08;;;;;;;0.00;0.00;;;;;;;;;;5042721;28;20029;-78
2022/10/28 02:03:35;;;;;;;0.73;0.73;;;;;;;;;;5042024;28;20033;-78
2022/10/28 02:06:03;;;;;;;0.00;0.00;;;;;;;;;;5046984;28;20024;-77
2022/10/28 02:08:48;;;;;;;0.00;0.00;;;;;;;;;;5042810;28;20076;-76
2022/10/28 02:11:21;;;;;;;0.00;0.00;;;;;;;;;;5044430;28;20613;-77
2022/10/28 02:13:53;;;;;;;0.13;0.13;;;;;;;;;;5047527;28;20106;-76
2022/10/28 02:16:29;;;;;;;0.00;0.00;;;;;;;;;;5043128;28;20057;-77
2022/10/28 02:18:58;;;;;;;0.13;0.13;;;;;;;;;;5045089;28;20025;-77
2022/10/28 02:21:24;;;;;;;1.00;1.00;;;;;;;;;;5043355;28;20564;-76
2022/10/28 02:23:54;;;;;;;0.00;0.00;;;;;;;;;;5021921;28;20042;-76
2022/10/28 02:26:41;;;;;;;0.00;0.00;;;;;;;;;;5002285;28;20021;-76
2022/10/28 02:29:15;;;;;;;0.43;0.43;;;;;;;;;;5018054;28;20086;-77
2022/10/28 02:31:50;;;;;;;0.00;0.00;;;;;;;;;;5018008;28;20030;-78
2022/10/28 02:34:19;;;;;;;1.30;0.70;;;;;;;;;;5019022;28;20061;-77
2022/10/28 02:36:47;;;;;;;2.03;1.20;;;;;;;;;;5001766;28;20040;-76
2022/10/28 02:39:14;;;;;;;0.10;0.10;;;;;;;;;;5002223;28;20116;-76
2022/10/28 02:41:50;;;;;;;0.20;0.20;;;;;;;;;;5022178;28;20025;-80
2022/10/28 02:44:18;;;;;;;9.27;6.60;;;;;;;;;;5028688;28;20494;-75
2022/10/28 02:46:46;;;;;;;3.38;3.17;;;;;;;;;;5027177;28;20384;-79
2022/10/28 02:49:14;;;;;;;7.35;6.72;;;;;;;;;;5013232;28;20395;-76
2022/10/28 02:51:52;;;;;;;0.15;0.15;;;;;;;;;;5028508;28;20044;-76
2022/10/28 02:54:28;;;;;;;1.90;1.80;;;;;;;;;;5006577;28;20380;-76
2022/10/28 02:56:58;;;;;;;2.20;2.10;;;;;;;;;;5023516;28;20143;-76
2022/10/28 02:59:25;;;;;;;0.73;0.73;;;;;;;;;;5010734;28;20518;-75
2022/10/28 03:01:51;;;;;;;2.28;2.17;;;;;;;;;;5015113;28;20036;-76
2022/10/28 03:04:17;;;;;;;1.02;1.00;;;;;;;;;;5025148;28;20021;-76
2022/10/28 03:06:52;;;;;;;0.00;0.00;;;;;;;;;;5024495;28;20053;-76
2022/10/28 03:09:18;;;;;;;0.00;0.00;;;;;;;;;;5025788;28;20056;-74
2022/10/28 03:11:44;;;;;;;0.43;0.43;;;;;;;;;;5024225;28;20475;-75
2022/10/28 03:14:11;;;;;;;0.10;0.10;;;;;;;;;;5024459;28;20028;-78
2022/10/28 03:16:37;;;;;;;0.00;0.00;;;;;;;;;;5024258;28;20227;-78
2022/10/28 03:19:03;;;;;;;1.08;1.08;;;;;;;;;;5026456;28;20018;-78
2022/10/28 03:21:30;;;;;;;0.35;0.35;;;;;;;;;;5025864;28;20037;-77
2022/10/28 03:23:56;;;;;;;0.00;0.00;;;;;;;;;;5021861;28;20091;-78
2022/10/28 03:26:22;;;;;;;0.00;0.00;;;;;;;;;;5022633;28;20153;-78
2022/10/28 03:28:49;;;;;;;1.00;0.98;;;;;;;;;;5014140;28;20033;-77
2022/10/28 03:31:15;;;;;;;1.30;1.25;;;;;;;;;;5028563;28;20083;-78
2022/10/28 03:33:42;;;;;;;0.00;0.00;;;;;;;;;;5013207;28;20033;-76
2022/10/28 03:36:08;;;;;;;0.00;0.00;;;;;;;;;;5010020;28;20045;-78
2022/10/28 03:38:34;;;;;;;0.28;0.28;;;;;;;;;;5026771;28;20077;-77
2022/10/28 03:41:01;;;;;;;0.30;0.30;;;;;;;;;;5024510;28;20033;-78
2022/10/28 03:43:27;;;;;;;1.20;1.20;;;;;;;;;;5028667;28;20068;-79
2022/10/28 03:45:54;;;;;;;4.45;1.38;;;;;;;;;;5021712;28;20108;-77
2022/10/28 03:48:20;;;;;;;1.42;1.42;;;;;;;;;;5026654;28;20480;-78
2022/10/28 03:50:46;;;;;;;0.55;0.55;;;;;;;;;;5028077;28;20041;-80
2022/10/28 03:53:13;;;;;;;0.03;0.03;;;;;;;;;;5009053;28;20031;-79
2022/10/28 03:55:39;;;;;;;1.75;0.98;;;;;;;;;;5005688;28;20076;-77
2022/10/28 03:58:05;;;;;;;11.18;10.10;;;;;;;;;;5024499;28;20026;-78
2022/10/28 04:00:32;;;;;;;0.80;0.80;;;;;;;;;;5006555;28;20030;-76
2022/10/28 04:02:58;;;;;;;5.15;1.65;;;;;;;;;;5026590;28;20109;-76
2022/10/28 04:05:24;;;;;;;8.25;5.38;;;;;;;;;;5022704;28;20030;-78
2022/10/28 04:07:52;;;;;;;1.13;1.05;;;;;;;;;;5023655;28;20052;-79
2022/10/28 04:10:19;;;;;;;0.00;0.00;;;;;;;;;;5028718;28;20487;-82
2022/10/28 04:12:45;;;;;;;0.70;0.70;;;;;;;;;;5031007;28;20030;-77
2022/10/28 04:15:11;;;;;;;0.03;0.03;;;;;;;;;;5005057;28;20025;-78
2022/10/28 04:17:38;;;;;;;2.47;2.38;;;;;;;;;;5023549;28;20029;-77
2022/10/28 04:20:04;;;;;;;3.25;3.15;;;;;;;;;;5026182;28;20029;-78
2022/10/28 04:22:31;;;;;;;1.15;1.10;;;;;;;;;;5022286;28;20037;-76
2022/10/28 04:24:57;;;;;;;3.25;3.10;;;;;;;;;;5022854;28;20053;-79
2022/10/28 04:27:23;;;;;;;1.55;1.20;;;;;;;;;;5023464;28;20116;-80
2022/10/28 04:29:50;;;;;;;3.20;2.88;;;;;;;;;;5026305;28;20025;-81
2022/10/28 04:32:16;;;;;;;2.38;2.17;;;;;;;;;;5025573;28;20045;-81
2022/10/28 04:34:43;;;;;;;1.38;1.33;;;;;;;;;;5009230;28;20042;-80
2022/10/28 04:37:09;;;;;;;3.47;3.17;;;;;;;;;;5025893;28;20480;-80
2022/10/28 04:39:35;;;;;;;5.63;5.25;;;;;;;;;;5007437;28;20037;-77
2022/10/28 04:42:01;;;;;;;1.52;1.42;;;;;;;;;;5028531;28;20037;-78
2022/10/28 04:44:28;;;;;;;4.38;3.38;;;;;;;;;;5026319;28;20032;-79
2022/10/28 04:46:55;;;;;;;5.50;2.30;;;;;;;;;;5028062;28;20038;-79
2022/10/28 04:49:22;;;;;;;10.65;9.95;;;;;;;;;;5013114;28;20117;-80
2022/10/28 04:51:48;;;;;;;1.77;1.73;;;;;;;;;;5030186;28;20526;-78
2022/10/28 04:54:15;;;;;;;2.55;2.45;;;;;;;;;;5020403;28;20030;-79
2022/10/28 04:56:41;;;;;;;5.43;4.93;;;;;;;;;;5027883;28;20018;-78
2022/10/28 04:59:07;;;;;;;7.32;6.75;;;;;;;;;;5021511;28;20120;-82
2022/10/28 05:01:34;;;;;;;0.93;0.93;;;;;;;;;;5018930;28;20048;-82
2022/10/28 05:04:00;;;;;;;1.40;1.33;;;;;;;;;;5018913;28;20068;-79
2022/10/28 05:06:26;;;;;;;2.10;2.00;;;;;;;;;;5003268;28;20036;-80
2022/10/28 05:08:53;;;;;;;3.47;3.28;;;;;;;;;;5008079;28;20049;-80
2022/10/28 05:11:19;;;;;;;10.10;7.82;;;;;;;;;;5001192;28;20188;-79
2022/10/28 05:13:45;;;;;;;7.78;7.20;;;;;;;;;;5019531;28;20037;-80
2022/10/28 05:16:12;;;;;;;13.18;8.05;;;;;;;;;;5021376;28;20033;-80
2022/10/28 05:18:38;;;;;;;15.40;12.10;;;;;;;;;;5005984;28;20106;-78
2022/10/28 05:21:05;;;;;;;6.53;6.07;;;;;;;;;;5022404;28;20530;-79
2022/10/28 05:23:31;;;;;;;7.25;5.47;;;;;;;;;;5022221;28;20038;-80
2022/10/28 05:25:57;;;;;;;1.17;1.17;;;;;;;;;;5021410;28;20026;-80
2022/10/28 05:28:24;;;;;;;29.52;14.65;;;;;;;;;;5020962;28;20014;-79
2022/10/28 05:30:53;;;;;;;2.95;2.63;;;;;;;;;;5004921;28;20029;-79
2022/10/28 05:33:20;;;;;;;2.53;2.33;;;;;;;;;;5016416;28;20506;-76
2022/10/28 05:35:46;;;;;;;5.47;5.07;;;;;;;;;;5021699;28;20089;-77
2022/10/28 05:38:12;;;;;;;5.00;4.55;;;;;;;;;;5020975;28;20034;-77
2022/10/28 05:40:39;;;;;;;2.78;2.05;;;;;;;;;;5002766;28;20140;-76
2022/10/28 05:43:05;;;;;;;32.10;6.25;;;;;;;;;;4999027;28;20072;-76
2022/10/28 05:45:32;;;;;;;8.13;6.97;;;;;;;;;;5010537;28;20017;-76
2022/10/28 05:47:58;;;;;;;0.08;0.08;;;;;;;;;;5027356;28;20025;-77
2022/10/28 05:50:24;;;;;;;10.95;4.70;;;;;;;;;;5004844;28;20040;-76
2022/10/28 05:52:52;;;;;;;3.47;3.00;;;;;;;;;;5005068;28;20508;-76
2022/10/28 05:55:19;;;;;;;1.23;1.20;;;;;;;;;;5002796;28;20065;-76
2022/10/28 05:57:46;;;;;;;3.35;2.22;;;;;;;;;;5020290;28;20029;-76
2022/10/28 06:00:13;;;;;;;0.73;0.45;;;;;;;;;;5007389;28;20049;-78
2022/10/28 06:02:40;;;;;;;7.68;3.63;;;;;;;;;;5018553;28;20041;-78
2022/10/28 06:05:07;;;;;;;8.98;3.45;;;;;;;;;;5019951;28;20038;-77
2022/10/28 06:07:36;;;;;;;2.50;2.22;;;;;;;;;;5018526;28;20042;-77
2022/10/28 06:10:06;;;;;;;0.47;0.47;;;;;;;;;;5004726;28;20471;-78
2022/10/28 06:12:32;;;;;;;7.18;2.45;;;;;;;;;;5031895;28;20045;-76
2022/10/28 06:14:59;;;;;;;0.17;0.17;;;;;;;;;;5011992;28;20032;-77
2022/10/28 06:17:25;;;;;;;15.13;9.18;;;;;;;;;;5025541;28;20028;-76
2022/10/28 06:19:52;;;;;;;0.60;0.57;;;;;;;;;;5019933;28;20037;-78
2022/10/28 06:22:19;;;;;;;7.53;4.15;;;;;;;;;;5016215;28;20050;-75
2022/10/28 06:24:45;;;;;;;2.40;2.20;;;;;;;;;;5020479;28;20060;-75
2022/10/28 06:27:12;;;;;;;2.03;1.92;;;;;;;;;;5018164;28;20029;-77
2022/10/28 06:29:38;;;;;;;1.15;1.10;;;;;;;;;;5006027;28;20438;-75
2022/10/28 06:32:05;;;;;;;0.75;0.55;;;;;;;;;;5025839;28;20033;-74
2022/10/28 06:34:31;;;;;;;0.70;0.50;;;;;;;;;;5024404;28;20038;-75
2022/10/28 06:36:57;;;;;;;2.50;1.45;;;;;;;;;;5020596;28;20495;-74
2022/10/28 06:39:23;;;;;;;7.95;3.47;;;;;;;;;;5024302;28;20036;-75
2022/10/28 06:41:50;;;;;;;2.83;1.73;;;;;;;;;;5024425;28;20128;-75
2022/10/28 06:44:16;;;;;;;7.80;4.03;;;;;;;;;;5002586;28;20068;-75
2022/10/28 06:46:42;;;;;;;1.35;1.25;;;;;;;;;;5023215;28;20030;-75
2022/10/28 06:49:09;;;;;;;4.88;2.38;;;;;;;;;;5006857;28;20022;-73
2022/10/28 06:51:35;;;;;;;2.53;1.42;;;;;;;;;;5027309;28;20033;-73
2022/10/28 06:54:02;;;;;;;5.82;3.03;;;;;;;;;;5028816;28;20083;-74
2022/10/28 06:56:28;;;;;;;2.08;1.45;;;;;;;;;;5007345;28;20540;-73
2022/10/28 06:58:55;;;;;;;7.22;4.80;;;;;;;;;;5006697;28;20420;-72
2022/10/28 07:01:21;;;;;;;0.17;0.17;;;;;;;;;;5021660;28;20026;-72
2022/10/28 07:03:49;;;;;;;1.23;0.90;;;;;;;;;;5023331;28;20290;-74
2022/10/28 07:06:16;;;;;;;1.65;1.17;;;;;;;;;;5004346;28;20112;-75
2022/10/28 07:08:42;;;;;;;0.93;0.43;;;;;;;;;;4997427;28;20019;-74
2022/10/28 07:11:08;;;;;;;3.03;2.30;;;;;;;;;;5015514;28;20032;-75
2022/10/28 07:13:35;;;;;;;1.95;1.85;;;;;;;;;;5019057;28;20112;-75
2022/10/28 07:16:01;;;;;;;1.80;1.65;;;;;;;;;;5015920;28;20121;-74
2022/10/28 07:18:28;;;;;;;0.75;0.75;;;;;;;;;;5022276;28;20035;-74
2022/10/28 07:20:58;;;;;;;0.00;0.00;;;;;;;;;;5020895;28;20034;-74
2022/10/28 07:23:24;;;;;;;2.55;2.20;;;;;;;;;;5017810;28;20072;-74
2022/10/28 07:25:52;;;;;;;6.53;5.93;;;;;;;;;;5021733;28;20036;-71
2022/10/28 07:28:18;;;;;;;1.27;0.90;;;;;;;;;;5004605;28;20395;-73
2022/10/28 07:30:44;;;;;;;0.00;0.00;;;;;;;;;;5025791;28;20480;-75
2022/10/28 07:33:11;;;;;;;0.30;0.30;;;;;;;;;;5025632;28;20085;-74
2022/10/28 07:35:41;;;;;;;6.97;3.67;;;;;;;;;;5010902;28;20025;-75
2022/10/28 07:38:08;;;;;;;1.45;1.08;;;;;;;;;;5006383;28;20029;-74
2022/10/28 07:40:34;;;;;;;2.38;1.17;;;;;;;;;;5022461;28;20547;-74
2022/10/28 07:43:00;;;;;;;11.18;1.85;;;;;;;;;;5007587;28;20029;-74
2022/10/28 07:45:27;;;;;;;8.07;2.13;;;;;;;;;;5024069;28;20021;-74
2022/10/28 07:47:53;;;;;;;1.88;0.85;;;;;;;;;;5022407;28;20440;-75
2022/10/28 07:50:19;;;;;;;1.30;0.90;;;;;;;;;;5003189;28;20116;-75
2022/10/28 07:52:46;;;;;;;0.10;0.10;;;;;;;;;;5018885;28;20511;-74
2022/10/28 07:55:12;;;;;;;0.35;0.35;;;;;;;;;;4998903;28;20052;-75
2022/10/28 07:57:38;;;;;;;1.55;0.75;;;;;;;;;;5022767;28;20037;-75
2022/10/28 08:00:08;;;;;;;0.00;0.00;;;;;;;;;;5003819;28;20029;-74
2022/10/28 08:02:38;;;;;;;0.73;0.73;;;;;;;;;;5021631;28;20037;-74
2022/10/28 08:05:05;;;;;;;0.00;0.00;;;;;;;;;;5021480;28;20717;-73
2022/10/28 08:07:31;;;;;;;0.38;0.13;;;;;;;;;;5023911;28;20171;-74
2022/10/28 08:09:58;;;;;;;0.00;0.00;;;;;;;;;;5029506;28;20391;-74
2022/10/28 08:12:24;;;;;;;0.00;0.00;;;;;;;;;;5006164;28;20034;-73
2022/10/28 08:14:50;;;;;;;1.08;0.73;;;;;;;;;;5005447;28;20056;-74
2022/10/28 08:17:17;;;;;;;0.00;0.00;;;;;;;;;;5008239;28;20479;-75
2022/10/28 08:19:43;;;;;;;0.10;0.10;;;;;;;;;;5001045;28;20036;-74
2022/10/28 08:22:09;;;;;;;1.52;0.10;;;;;;;;;;5025498;28;20077;-74
2022/10/28 08:24:36;;;;;;;0.85;0.85;;;;;;;;;;5023303;28;20476;-75
2022/10/28 08:27:02;;;;;;;1.77;0.03;;;;;;;;;;5023204;28;20030;-74
2022/10/28 08:29:28;;;;;;;4.28;3.60;;;;;;;;;;5023750;28;20515;-74
2022/10/28 08:31:55;;;;;;;6.40;2.95;;;;;;;;;;5019844;28;20079;-74
2022/10/28 08:34:21;;;;;;;7.57;3.83;;;;;;;;;;5026601;28;20160;-72
2022/10/28 08:36:47;;;;;;;4.65;2.90;;;;;;;;;;5006220;28;20472;-74
2022/10/28 08:39:14;;;;;;;1.50;1.42;;;;;;;;;;5004019;28;20112;-72
2022/10/28 08:41:44;;;;;;;0.32;0.32;;;;;;;;;;5028195;28;20094;-75
2022/10/28 08:44:29;;;;;;;0.20;0.20;;;;;;;;;;5026631;28;20383;-74
2022/10/28 08:46:56;;;;;;;2.65;1.55;;;;;;;;;;5013400;28;20074;-73
2022/10/28 08:49:23;;;;;;;3.70;2.38;;;;;;;;;;5007593;28;20021;-73
2022/10/28 08:52:05;;;;;;;0.15;0.15;;;;;;;;;;5010030;28;20571;-74
2022/10/28 08:54:36;;;;;;;0.10;0.10;;;;;;;;;;5008817;28;20025;-74
2022/10/28 08:57:05;;;;;;;2.25;1.25;;;;;;;;;;5023129;28;20030;-72
2022/10/28 08:59:37;;;;;;;0.20;0.20;;;;;;;;;;5003597;28;20050;-74
2022/10/28 09:02:13;;;;;;;0.00;0.00;;;;;;;;;;5018676;28;20026;-72
2022/10/28 09:04:41;;;;;;;0.00;0.00;;;;;;;;;;5012075;28;20051;-72
2022/10/28 09:07:24;;;;;;;0.90;0.90;;;;;;;;;;5016516;28;20021;-73
2022/10/28 09:09:52;;;;;;;0.00;0.00;;;;;;;;;;5021889;28;20509;-75
2022/10/28 09:12:27;;;;;;;0.00;0.00;;;;;;;;;;5013868;28;20030;-73
2022/10/28 09:14:57;;;;;;;0.10;0.05;;;;;;;;;;5033371;28;20025;-73
2022/10/28 09:17:41;;;;;;;0.00;0.00;;;;;;;;;;5024811;28;20117;-74
2022/10/28 09:20:18;;;;;;;0.10;0.10;;;;;;;;;;5022726;28;20041;-72
2022/10/28 09:22:45;;;;;;;3.75;1.58;;;;;;;;;;5021341;28;20286;-71
2022/10/28 09:25:22;;;;;;;1.17;1.17;;;;;;;;;;5023243;28;20045;-72
2022/10/28 09:27:56;;;;;;;0.10;0.10;;;;;;;;;;5019791;28;20028;-71
2022/10/28 09:30:28;;;;;;;2.38;2.30;;;;;;;;;;5000191;28;20022;-72
2022/10/28 09:33:16;;;;;;;2.42;0.90;;;;;;;;;;5017053;28;20391;-71
2022/10/28 09:35:44;;;;;;;0.00;0.00;;;;;;;;;;5022883;28;20044;-72
2022/10/28 09:38:25;;;;;;;0.00;0.00;;;;;;;;;;5016657;28;20024;-73
2022/10/28 09:40:54;;;;;;;3.50;3.40;;;;;;;;;;5023207;28;20080;-74
2022/10/28 09:43:34;;;;;;;0.00;0.00;;;;;;;;;;5004592;28;20025;-77
2022/10/28 09:46:19;;;;;;;0.77;0.35;;;;;;;;;;4999922;28;20025;-73
2022/10/28 09:48:49;;;;;;;0.00;0.00;;;;;;;;;;5016988;28;20026;-72
2022/10/28 09:51:21;;;;;;;2.00;1.45;;;;;;;;;;5018550;28;20022;-75
2022/10/28 09:53:51;;;;;;;1.20;0.95;;;;;;;;;;5022039;28;20056;-75
2022/10/28 09:56:17;;;;;;;0.00;0.00;;;;;;;;;;5021280;28;20026;-74
2022/10/28 09:58:47;;;;;;;0.00;0.00;;;;;;;;;;5016358;28;20485;-74
2022/10/28 10:01:14;;;;;;;0.00;0.00;;;;;;;;;;4996698;28;20546;-73
2022/10/28 10:03:40;;;;;;;0.00;0.00;;;;;;;;;;5001546;28;20441;-74
2022/10/28 10:06:13;;;;;;;0.00;0.00;;;;;;;;;;5019269;28;20038;-75
2022/10/28 10:08:40;;;;;;;0.00;0.00;;;;;;;;;;5020226;28;20025;-75
2022/10/28 10:11:12;;;;;;;0.00;0.00;;;;;;;;;;5017094;28;20028;-75
2022/10/28 10:13:41;;;;;;;0.00;0.00;;;;;;;;;;5021253;28;20083;-75
2022/10/28 10:16:17;;;;;;;0.00;0.00;;;;;;;;;;5027258;28;20048;-73
2022/10/28 10:18:47;;;;;;;0.10;0.00;;;;;;;;;;5026837;28;20022;-73
2022/10/28 10:21:15;;;;;;;0.25;0.25;;;;;;;;;;5009228;28;20388;-74
2022/10/28 10:23:43;;;;;;;0.00;0.00;;;;;;;;;;5021848;28;20048;-78
2022/10/28 10:26:12;;;;;;;0.00;0.00;;;;;;;;;;5016038;28;20025;-75
2022/10/28 10:28:41;;;;;;;0.00;0.00;;;;;;;;;;5017985;28;20027;-75
2022/10/28 10:31:15;;;;;;;0.00;0.00;;;;;;;;;;5024832;28;20021;-76
2022/10/28 10:33:42;;;;;;;0.00;0.00;;;;;;;;;;4999844;28;20029;-74
2022/10/28 10:36:11;;;;;;;0.00;0.00;;;;;;;;;;5023461;28;20064;-76
2022/10/28 10:38:38;;;;;;;1.05;0.35;;;;;;;;;;5022411;28;20030;-74
2022/10/28 10:41:05;;;;;;;0.00;0.00;;;;;;;;;;5022719;28;20061;-76
2022/10/28 10:43:38;;;;;;;0.00;0.00;;;;;;;;;;5020216;28;20064;-73
2022/10/28 10:46:15;;;;;;;1.45;1.30;;;;;;;;;;5022883;28;20018;-74
2022/10/28 10:48:42;;;;;;;0.00;0.00;;;;;;;;;;5018728;28;20022;-74
2022/10/28 10:51:11;;;;;;;0.10;0.10;;;;;;;;;;5021269;28;20018;-73
2022/10/28 10:53:38;;;;;;;0.00;0.00;;;;;;;;;;5020240;28;20041;-75
2022/10/28 10:56:08;;;;;;;0.10;0.10;;;;;;;;;;5021915;28;20038;-75
2022/10/28 10:58:38;;;;;;;0.35;0.28;;;;;;;;;;5022259;28;20037;-74
2022/10/28 11:01:06;;;;;;;0.68;0.68;;;;;;;;;;5000955;28;20054;-75
2022/10/28 11:03:59;;;;;;;0.10;0.10;;;;;;;;;;5024153;28;20067;-76
2022/10/28 11:06:43;;;;;;;0.00;0.00;;;;;;;;;;5006300;28;20034;-73
2022/10/28 11:09:22;;;;;;;7.53;4.35;;;;;;;;;;5005454;28;20061;-74
2022/10/28 11:11:48;;;;;;;3.67;3.42;;;;;;;;;;5033756;28;20075;-75
2022/10/28 11:14:14;;;;;;;0.00;0.00;;;;;;;;;;5027394;28;20025;-75
2022/10/28 11:16:54;;;;;;;0.98;0.98;;;;;;;;;;5017702;28;20037;-74
2022/10/28 11:19:27;;;;;;;0.70;0.38;;;;;;;;;;5005162;28;20033;-74
2022/10/28 11:22:06;;;;;;;2.90;0.38;;;;;;;;;;5016697;28;20427;-75
2022/10/28 11:24:38;;;;;;;1.33;0.52;;;;;;;;;;5027989;28;20040;-75
2022/10/28 11:27:18;;;;;;;0.00;0.00;;;;;;;;;;5000426;28;20352;-74
2022/10/28 11:29:45;;;;;;;0.43;0.43;;;;;;;;;;5016414;28;20088;-73
2022/10/28 11:32:15;;;;;;;0.10;0.10;;;;;;;;;;5016634;28;20025;-76
2022/10/28 11:34:44;;;;;;;0.00;0.00;;;;;;;;;;5023073;28;20069;-76
2022/10/28 11:37:11;;;;;;;0.00;0.00;;;;;;;;;;5028719;28;20025;-74
2022/10/28 11:39:47;;;;;;;0.63;0.25;;;;;;;;;;5038411;28;20025;-74
2022/10/28 11:42:26;;;;;;;1.10;1.08;;;;;;;;;;5049118;28;20017;-75
2022/10/28 11:45:15;;;;;;;0.00;0.00;;;;;;;;;;5017023;28;20025;-76
2022/10/28 11:47:41;;;;;;;0.00;0.00;;;;;;;;;;5001158;28;20034;-74
2022/10/28 11:50:08;;;;;;;0.00;0.00;;;;;;;;;;5026050;28;20107;-73
2022/10/28 11:52:37;;;;;;;1.58;1.48;;;;;;;;;;5011625;28;20036;-75
2022/10/28 11:55:13;;;;;;;0.00;0.00;;;;;;;;;;5027859;28;20480;-76
2022/10/28 11:57:39;;;;;;;0.00;0.00;;;;;;;;;;5029101;28;20038;-72
2022/10/28 12:00:15;;;;;;;0.00;0.00;;;;;;;;;;5010208;28;20701;-74
2022/10/28 12:02:55;;;;;;;0.00;0.00;;;;;;;;;;5019698;28;20084;-75
2022/10/28 12:05:36;;;;;;;0.00;0.00;;;;;;;;;;5008572;28;20030;-74
2022/10/28 12:08:31;;;;;;;0.00;0.00;;;;;;;;;;5006689;28;20030;-74
2022/10/28 12:11:07;;;;;;;1.17;1.17;;;;;;;;;;5009982;28;20037;-74
2022/10/28 12:13:33;;;;;;;0.00;0.00;;;;;;;;;;5032349;28;20033;-74
2022/10/28 12:15:59;;;;;;;0.00;0.00;;;;;;;;;;5029786;28;20025;-74
2022/10/28 12:18:26;;;;;;;0.00;0.00;;;;;;;;;;5009437;28;20033;-74
2022/10/28 12:21:15;;;;;;;0.00;0.00;;;;;;;;;;5004829;28;20149;-75
2022/10/28 12:23:42;;;;;;;0.00;0.00;;;;;;;;;;5026722;28;20107;-74
2022/10/28 12:26:10;;;;;;;0.00;0.00;;;;;;;;;;5018109;28;20021;-74
2022/10/28 12:28:49;;;;;;;3.15;2.10;;;;;;;;;;5029944;28;20021;-74
2022/10/28 12:31:48;;;;;;;0.00;0.00;;;;;;;;;;5009037;28;20048;-74
2022/10/28 12:34:17;;;;;;;0.00;0.00;;;;;;;;;;4976970;28;20133;-76
2022/10/28 12:36:52;;;;;;;0.90;0.90;;;;;;;;;;5009964;28;20117;-74
2022/10/28 12:39:24;;;;;;;0.00;0.00;;;;;;;;;;5025224;28;20044;-74
2022/10/28 12:41:53;;;;;;;0.57;0.57;;;;;;;;;;5019259;28;20525;-73
2022/10/28 12:44:21;;;;;;;0.10;0.10;;;;;;;;;;5011027;28;20018;-73
2022/10/28 12:46:50;;;;;;;0.00;0.00;;;;;;;;;;5003640;28;20471;-74
2022/10/28 12:49:39;;;;;;;0.00;0.00;;;;;;;;;;5017673;28;21478;-75
2022/10/28 12:52:13;;;;;;;0.65;0.65;;;;;;;;;;4987651;28;20083;-74
2022/10/28 12:54:51;;;;;;;0.20;0.20;;;;;;;;;;5017929;28;20101;-74
2022/10/28 12:57:20;;;;;;;0.00;0.00;;;;;;;;;;5029882;28;20113;-72
2022/10/28 13:00:01;;;;;;;0.00;0.00;;;;;;;;;;4998836;28;20475;-72
2022/10/28 13:02:34;;;;;;;0.20;0.20;;;;;;;;;;5014525;28;20044;-73
2022/10/28 13:05:00;;;;;;;0.00;0.00;;;;;;;;;;5029161;28;20026;-73
2022/10/28 13:07:34;;;;;;;0.75;0.75;;;;;;;;;;5034136;28;20026;-73
2022/10/28 13:10:10;;;;;;;2.10;2.00;;;;;;;;;;5015205;28;20120;-74
2022/10/28 13:12:39;;;;;;;0.00;0.00;;;;;;;;;;5033919;28;20021;-74
2022/10/28 13:15:29;;;;;;;0.10;0.10;;;;;;;;;;5016314;28;20040;-73
2022/10/28 13:17:58;;;;;;;0.68;0.68;;;;;;;;;;5012988;28;20064;-73
2022/10/28 13:20:31;;;;;;;0.00;0.00;;;;;;;;;;5034350;28;20379;-74
2022/10/28 13:23:09;;;;;;;0.10;0.10;;;;;;;;;;5033163;28;20052;-73
2022/10/28 13:25:42;;;;;;;0.00;0.00;;;;;;;;;;5015735;28;20112;-74
2022/10/28 13:28:13;;;;;;;0.00;0.00;;;;;;;;;;5029206;28;20021;-73
2022/10/28 13:30:51;;;;;;;0.35;0.35;;;;;;;;;;5013608;28;20057;-73
2022/10/28 13:33:20;;;;;;;0.00;0.00;;;;;;;;;;5013249;28;20392;-73
2022/10/28 13:35:47;;;;;;;0.00;0.00;;;;;;;;;;5013181;28;20411;-74
2022/10/28 13:38:18;;;;;;;1.13;1.13;;;;;;;;;;5013561;28;20030;-73
2022/10/28 13:40:45;;;;;;;0.03;0.03;;;;;;;;;;5013694;28;20030;-73
2022/10/28 13:43:21;;;;;;;0.00;0.00;;;;;;;;;;5017909;28;20022;-73
2022/10/28 13:45:52;;;;;;;0.00;0.00;;;;;;;;;;5030985;28;20021;-73
2022/10/28 13:48:37;;;;;;;0.00;0.00;;;;;;;;;;5015476;28;20132;-74
2022/10/28 13:51:09;;;;;;;0.00;0.00;;;;;;;;;;5014925;28;20025;-74
2022/10/28 13:53:56;;;;;;;0.00;0.00;;;;;;;;;;5015576;28;20033;-73
2022/10/28 13:56:27;;;;;;;0.00;0.00;;;;;;;;;;5004701;28;20029;-72
2022/10/28 13:59:01;;;;;;;3.65;3.53;;;;;;;;;;5000704;28;21229;-73
2022/10/28 14:01:38;;;;;;;0.20;0.20;;;;;;;;;;5024943;28;20040;-73
2022/10/28 14:04:05;;;;;;;0.45;0.45;;;;;;;;;;5030786;28;20050;-73
2022/10/28 14:06:33;;;;;;;0.47;0.47;;;;;;;;;;5014396;28;20029;-73
2022/10/28 14:08:59;;;;;;;3.30;1.60;;;;;;;;;;5008487;28;20029;-72
2022/10/28 14:11:29;;;;;;;0.15;0.15;;;;;;;;;;5014149;28;20025;-73
2022/10/28 14:13:58;;;;;;;1.55;1.38;;;;;;;;;;5033103;28;20484;-73
2022/10/28 14:16:29;;;;;;;1.33;1.33;;;;;;;;;;5032977;28;20048;-73
2022/10/28 14:19:12;;;;;;;0.98;0.98;;;;;;;;;;5032781;28;20017;-73
2022/10/28 14:21:46;;;;;;;0.68;0.68;;;;;;;;;;5014926;28;20483;-73
2022/10/28 14:24:14;;;;;;;0.00;0.00;;;;;;;;;;5015022;28;20053;-73
2022/10/28 14:26:59;;;;;;;0.65;0.65;;;;;;;;;;5014994;28;20026;-73
2022/10/28 14:29:28;;;;;;;0.03;0.03;;;;;;;;;;5002804;28;20022;-73
2022/10/28 14:31:55;;;;;;;5.20;4.68;;;;;;;;;;5013748;28;20018;-74
2022/10/28 14:34:21;;;;;;;0.00;0.00;;;;;;;;;;5013220;28;20037;-74
2022/10/28 14:36:56;;;;;;;2.95;2.17;;;;;;;;;;5015782;28;20022;-73
2022/10/28 14:39:35;;;;;;;0.00;0.00;;;;;;;;;;5012806;28;20052;-76
2022/10/28 14:42:13;;;;;;;0.00;0.00;;;;;;;;;;5000101;28;20060;-75
2022/10/28 14:45:03;;;;;;;0.00;0.00;;;;;;;;;;4999245;28;20030;-76
2022/10/28 14:47:49;;;;;;;2.35;2.20;;;;;;;;;;5030309;28;20049;-75
2022/10/28 14:50:34;;;;;;;2.83;2.72;;;;;;;;;;5018313;28;20029;-75
2022/10/28 14:53:01;;;;;;;10.30;7.13;;;;;;;;;;5036835;28;20026;-75
2022/10/28 14:55:30;;;;;;;0.85;0.85;;;;;;;;;;5036482;28;20025;-74
2022/10/28 14:58:19;;;;;;;0.22;0.22;;;;;;;;;;5022279;28;20566;-74
2022/10/28 15:01:02;;;;;;;0.10;0.10;;;;;;;;;;4995382;28;20109;-74